createdAt,value
2023-04-02T00:01:27.754Z,83.04
2023-04-02T00:04:16.204Z,83.55
2023-04-02T00:06:47.140Z,84.41
2023-04-02T00:09:32.130Z,84.64
2023-04-02T00:12:15.377Z,85.35
2023-04-02T00:14:48.523Z,86.14
2023-04-02T00:17:17.782Z,87.12
2023-04-02T00:19:51.140Z,87.63
2023-04-02T00:22:20.598Z,88.00
2023-04-02T00:24:52.829Z,88.68
2023-04-02T00:27:20.930Z,88.98
2023-04-02T00:29:50.160Z,89.03
2023-04-02T00:32:23.302Z,89.68
2023-04-02T00:34:51.574Z,89.79
2023-04-02T00:37:28.024Z,89.99
2023-04-02T00:40:01.649Z,90.31
2023-04-02T00:42:31.581Z,90.41
2023-04-02T00:44:59.673Z,90.73
2023-04-02T00:47:34.237Z,90.87
2023-04-02T00:50:08.834Z,90.27
2023-04-02T00:52:37.113Z,90.13
2023-04-02T00:55:10.424Z,90.09
2023-04-02T00:57:38.611Z,89.74
2023-04-02T01:00:20.663Z,89.78
2023-04-02T01:03:22.905Z,89.55
2023-04-02T01:06:01.614Z,89.33
2023-04-02T01:08:41.136Z,88.91
2023-04-02T01:11:19.395Z,88.78
2023-04-02T01:13:58.049Z,88.14
2023-04-02T01:16:36.447Z,88.05
2023-04-02T01:19:18.296Z,88.21
2023-04-02T01:21:58.793Z,87.84
2023-04-02T01:24:32.451Z,88.05
2023-04-02T01:27:02.275Z,87.31
2023-04-02T01:29:34.080Z,87.15
2023-04-02T01:32:05.212Z,87.14
2023-04-02T01:34:33.717Z,87.34
2023-04-02T01:37:23.042Z,87.22
2023-04-02T01:40:05.670Z,87.21
2023-04-02T01:42:41.934Z,87.20
2023-04-02T01:45:14.749Z,87.54
2023-04-02T01:47:43.799Z,87.32
2023-04-02T01:50:23.589Z,88.21
2023-04-02T01:52:53.468Z,87.86
2023-04-02T01:55:31.199Z,88.23
2023-04-02T01:58:01.351Z,88.60
2023-04-02T02:00:32.961Z,88.47
2023-04-02T02:03:03.426Z,88.66
2023-04-02T02:05:31.344Z,88.59
2023-04-02T02:08:01.341Z,88.42
2023-04-02T02:10:35.167Z,88.75
2023-04-02T02:13:03.317Z,89.02
2023-04-02T02:15:34.895Z,89.13
2023-04-02T02:18:06.599Z,89.33
2023-04-02T02:20:36.094Z,89.65
2023-04-02T02:23:05.459Z,89.77
2023-04-02T02:25:34.989Z,89.93
2023-04-02T02:28:09.335Z,90.21
2023-04-02T02:30:42.908Z,90.14
2023-04-02T02:33:17.319Z,90.58
2023-04-02T02:35:51.205Z,90.82
2023-04-02T02:38:43.737Z,90.82
2023-04-02T02:41:19.657Z,91.10
2023-04-02T02:43:57.435Z,91.03
2023-04-02T02:46:28.548Z,91.49
2023-04-02T02:48:58.694Z,91.32
2023-04-02T02:51:29.640Z,91.63
2023-04-02T02:54:03.544Z,91.94
2023-04-02T02:56:33.522Z,91.74
2023-04-02T02:59:02.272Z,92.23
2023-04-02T03:01:33.393Z,92.49
2023-04-02T03:04:02.008Z,92.39
2023-04-02T03:06:29.800Z,93.03
2023-04-02T03:09:04.932Z,93.22
2023-04-02T03:11:39.724Z,93.18
2023-04-02T03:14:15.896Z,93.45
2023-04-02T03:16:48.311Z,93.61
2023-04-02T03:19:26.817Z,93.91
2023-04-02T03:22:03.026Z,94.10
2023-04-02T03:24:37.836Z,94.41
2023-04-02T03:27:14.800Z,94.17
2023-04-02T03:29:49.452Z,94.66
2023-04-02T03:32:24.053Z,94.87
2023-04-02T03:34:56.456Z,95.06
2023-04-02T03:37:29.574Z,94.92
2023-04-02T03:40:01.492Z,95.36
2023-04-02T03:42:38.235Z,95.40
2023-04-02T03:45:14.191Z,95.29
2023-04-02T03:47:47.701Z,95.35
2023-04-02T03:50:22.026Z,95.11
2023-04-02T03:52:50.172Z,95.55
2023-04-02T03:55:22.812Z,95.95
2023-04-02T03:58:00.751Z,95.60
2023-04-02T04:00:36.281Z,95.50
2023-04-02T04:03:11.481Z,95.79
2023-04-02T04:05:48.401Z,95.84
2023-04-02T04:08:19.673Z,95.94
2023-04-02T04:10:53.185Z,95.87
2023-04-02T04:13:32.386Z,95.84
2023-04-02T04:16:03.807Z,95.60
2023-04-02T04:18:37.925Z,96.13
2023-04-02T04:21:13.265Z,96.06
2023-04-02T04:23:50.626Z,96.25
2023-04-02T04:26:24.633Z,96.15
2023-04-02T04:29:05.531Z,96.25
2023-04-02T04:31:39.834Z,95.83
2023-04-02T04:34:16.144Z,95.72
2023-04-02T04:36:48.160Z,96.01
2023-04-02T04:39:23.850Z,95.77
2023-04-02T04:41:52.873Z,95.71
2023-04-02T04:44:24.435Z,96.22
2023-04-02T04:46:58.771Z,95.79
2023-04-02T04:49:33.776Z,96.20
2023-04-02T04:52:09.337Z,95.82
2023-04-02T04:54:40.093Z,96.18
2023-04-02T04:57:22.696Z,96.57
2023-04-02T04:59:58.579Z,95.99
2023-04-02T05:02:31.154Z,95.98
2023-04-02T05:05:01.610Z,96.40
2023-04-02T05:07:31.824Z,96.38
2023-04-02T05:10:05.296Z,96.05
2023-04-02T05:12:38.050Z,96.43
2023-04-02T05:15:11.586Z,96.29
2023-04-02T05:17:46.797Z,95.86
2023-04-02T05:20:22.490Z,95.91
2023-04-02T05:22:54.173Z,96.03
2023-04-02T05:25:25.931Z,95.91
2023-04-02T05:28:00.573Z,95.81
2023-04-02T05:30:46.652Z,95.65
2023-04-02T05:33:33.949Z,95.79
2023-04-02T05:36:06.017Z,95.64
2023-04-02T05:38:36.058Z,95.50
2023-04-02T05:41:08.580Z,95.64
2023-04-02T05:43:41.391Z,95.54
2023-04-02T05:46:16.403Z,95.72
2023-04-02T05:48:49.363Z,95.47
2023-04-02T05:51:23.011Z,95.86
2023-04-02T05:53:56.106Z,96.08
2023-04-02T05:56:29.131Z,95.83
2023-04-02T05:59:07.598Z,96.05
2023-04-02T06:01:43.067Z,96.30
2023-04-02T06:04:21.630Z,96.45
2023-04-02T06:07:03.430Z,96.01
2023-04-02T06:09:40.721Z,95.71
2023-04-02T06:12:19.113Z,95.65
2023-04-02T06:14:47.240Z,96.09
2023-04-02T06:17:17.344Z,95.77
2023-04-02T06:19:45.841Z,95.98
2023-04-02T06:22:24.745Z,95.63
2023-04-02T06:24:57.408Z,95.47
2023-04-02T06:27:27.617Z,95.41
2023-04-02T06:30:02.109Z,95.53
2023-04-02T06:32:29.906Z,95.27
2023-04-02T06:34:58.329Z,95.33
2023-04-02T06:37:32.983Z,94.79
2023-04-02T06:40:01.774Z,94.67
2023-04-02T06:42:33.992Z,94.65
2023-04-02T06:45:02.084Z,94.64
2023-04-02T06:47:35.096Z,94.37
2023-04-02T06:50:09.118Z,94.02
2023-04-02T06:52:44.321Z,93.63
2023-04-02T06:55:29.912Z,93.93
2023-04-02T06:57:57.856Z,93.15
2023-04-02T07:00:31.525Z,92.87
2023-04-02T07:03:02.580Z,93.33
2023-04-02T07:05:30.644Z,93.30
2023-04-02T07:07:59.877Z,93.19
2023-04-02T07:10:27.615Z,93.83
2023-04-02T07:12:55.424Z,93.48
2023-04-02T07:15:25.472Z,93.39
2023-04-02T07:17:54.749Z,93.42
2023-04-02T07:20:28.837Z,93.94
2023-04-02T07:22:57.377Z,93.74
2023-04-02T07:25:27.843Z,93.69
2023-04-02T07:27:56.106Z,93.91
2023-04-02T07:30:24.386Z,94.25
2023-04-02T07:32:52.208Z,93.57
2023-04-02T07:35:19.972Z,93.16
2023-04-02T07:37:47.609Z,93.01
2023-04-02T07:40:18.945Z,92.80
2023-04-02T07:42:48.003Z,92.73
2023-04-02T07:45:16.126Z,92.48
2023-04-02T07:47:44.939Z,92.33
2023-04-02T07:50:13.442Z,92.67
2023-04-02T07:52:42.149Z,92.18
2023-04-02T07:55:12.572Z,91.53
2023-04-02T07:57:43.671Z,91.87
2023-04-02T08:00:15.479Z,92.18
2023-04-02T08:02:43.265Z,91.97
2023-04-02T08:05:11.634Z,92.30
2023-04-02T08:07:40.067Z,92.54
2023-04-02T08:10:09.949Z,92.85
2023-04-02T08:12:38.095Z,92.58
2023-04-02T08:15:08.030Z,92.02
2023-04-02T08:17:37.054Z,91.73
2023-04-02T08:20:09.134Z,91.90
2023-04-02T08:22:36.815Z,91.74
2023-04-02T08:25:04.763Z,90.97
2023-04-02T08:27:32.468Z,90.53
2023-04-02T08:30:00.148Z,91.40
2023-04-02T08:32:29.129Z,91.19
2023-04-02T08:34:58.256Z,90.88
2023-04-02T08:37:25.995Z,90.25
2023-04-02T08:39:53.771Z,90.32
2023-04-02T08:42:30.968Z,90.09
2023-04-02T08:45:23.618Z,90.44
2023-04-02T08:47:57.381Z,91.59
2023-04-02T08:50:32.791Z,89.07
2023-04-02T08:53:03.185Z,88.69
2023-04-02T08:55:37.518Z,89.00
2023-04-02T08:58:18.676Z,88.18
2023-04-02T09:00:49.899Z,87.80
2023-04-02T09:03:20.671Z,88.51
2023-04-02T09:05:52.646Z,87.71
2023-04-02T09:08:24.484Z,86.94
2023-04-02T09:10:59.254Z,86.36
2023-04-02T09:13:28.698Z,86.02
2023-04-02T09:16:02.195Z,86.06
2023-04-02T09:18:34.056Z,86.28
2023-04-02T09:21:09.898Z,85.88
2023-04-02T09:23:37.578Z,85.46
2023-04-02T09:26:22.864Z,85.19
2023-04-02T09:28:52.749Z,84.32
2023-04-02T09:31:27.868Z,84.56
2023-04-02T09:33:55.616Z,84.25
2023-04-02T09:36:38.602Z,84.62
2023-04-02T09:39:08.265Z,85.26
2023-04-02T09:41:37.433Z,85.34
2023-04-02T09:44:31.182Z,84.99
2023-04-02T09:47:03.989Z,86.23
2023-04-02T09:49:34.048Z,88.30
2023-04-02T09:52:21.024Z,89.97
2023-04-02T09:55:06.290Z,90.39
2023-04-02T09:57:34.170Z,92.63
2023-04-02T10:00:21.851Z,94.18
2023-04-02T10:03:05.292Z,94.39
2023-04-02T10:05:39.966Z,95.82
2023-04-02T10:08:19.816Z,96.80
2023-04-02T10:10:51.720Z,97.36
2023-04-02T10:13:26.300Z,97.55
2023-04-02T10:16:00.046Z,97.66
2023-04-02T10:18:39.980Z,97.39
2023-04-02T10:21:09.210Z,97.90
2023-04-02T10:23:38.360Z,97.58
2023-04-02T10:26:21.231Z,96.21
2023-04-02T10:29:06.954Z,96.73
2023-04-02T10:31:41.578Z,96.71
2023-04-02T10:34:18.281Z,95.90
2023-04-02T10:36:51.955Z,95.92
2023-04-02T10:39:25.537Z,96.22
2023-04-02T10:41:57.789Z,95.31
2023-04-02T10:44:41.998Z,96.57
2023-04-02T10:47:18.928Z,96.19
2023-04-02T10:49:56.053Z,96.70
2023-04-02T10:52:30.336Z,97.84
2023-04-02T10:55:03.848Z,98.67
2023-04-02T10:57:38.019Z,98.65
2023-04-02T11:00:19.572Z,97.42
2023-04-02T11:02:52.199Z,96.88
2023-04-02T11:05:26.656Z,96.91
2023-04-02T11:07:59.184Z,97.63
2023-04-02T11:10:33.818Z,98.12
2023-04-02T11:13:08.235Z,99.47
2023-04-02T11:15:37.495Z,98.66
2023-04-02T11:18:05.639Z,98.85
2023-04-02T11:21:00.885Z,97.94
2023-04-02T11:23:32.674Z,98.89
2023-04-02T11:26:41.441Z,99.14
2023-04-02T11:29:23.242Z,98.48
2023-04-02T11:31:52.773Z,98.27
2023-04-02T11:35:05.968Z,98.11
2023-04-02T11:37:38.233Z,97.79
2023-04-02T11:40:53.035Z,97.40
2023-04-02T11:43:51.668Z,97.18
2023-04-02T11:46:39.697Z,96.91
2023-04-02T11:49:36.925Z,96.84
2023-04-02T11:52:12.263Z,95.89
2023-04-02T11:54:41.607Z,97.58
2023-04-02T11:57:22.640Z,97.53
2023-04-02T12:00:08.711Z,97.79
2023-04-02T12:02:49.916Z,96.92
2023-04-02T12:05:26.613Z,96.61
2023-04-02T12:08:08.936Z,96.31
2023-04-02T12:10:54.822Z,96.07
2023-04-02T12:13:50.029Z,96.09
2023-04-02T12:16:20.563Z,96.69
2023-04-02T12:18:53.963Z,96.81
2023-04-02T12:21:24.388Z,96.26
2023-04-02T12:23:55.516Z,95.43
2023-04-02T12:26:32.030Z,95.01
2023-04-02T12:29:25.650Z,95.02
2023-04-02T12:31:56.051Z,94.82
2023-04-02T12:34:26.133Z,94.71
2023-04-02T12:36:55.894Z,94.29
2023-04-02T12:39:25.978Z,94.71
2023-04-02T12:41:56.053Z,96.14
2023-04-02T12:44:25.727Z,95.31
2023-04-02T12:46:56.121Z,93.99
2023-04-02T12:49:36.890Z,92.33
2023-04-02T12:52:07.076Z,92.77
2023-04-02T12:54:39.241Z,92.31
2023-04-02T12:57:29.624Z,92.11
2023-04-02T12:59:58.687Z,92.73
2023-04-02T13:02:29.982Z,92.04
2023-04-02T13:05:00.923Z,91.10
2023-04-02T13:07:31.139Z,91.81
2023-04-02T13:10:00.983Z,91.43
2023-04-02T13:12:33.773Z,91.54
2023-04-02T13:15:03.199Z,90.45
2023-04-02T13:17:43.971Z,90.66
2023-04-02T13:20:35.727Z,90.14
2023-04-02T13:23:24.598Z,90.45
2023-04-02T13:25:53.043Z,91.21
2023-04-02T13:28:21.128Z,91.68
2023-04-02T13:30:49.312Z,90.88
2023-04-02T13:33:19.122Z,89.92
2023-04-02T13:35:46.993Z,90.48
2023-04-02T13:38:14.941Z,89.48
2023-04-02T13:40:42.771Z,89.40
2023-04-02T13:43:18.333Z,89.71
2023-04-02T13:45:49.820Z,88.78
2023-04-02T13:48:19.180Z,88.71
2023-04-02T13:50:47.362Z,87.78
2023-04-02T13:53:23.124Z,87.62
2023-04-02T13:55:52.090Z,87.25
2023-04-02T13:58:20.077Z,87.11
2023-04-02T14:00:48.298Z,87.44
2023-04-02T14:03:22.067Z,87.83
2023-04-02T14:05:58.655Z,87.60
2023-04-02T14:08:41.341Z,87.57
2023-04-02T14:11:24.930Z,87.47
2023-04-02T14:14:14.077Z,85.49
2023-04-02T14:16:56.805Z,86.16
2023-04-02T14:19:50.969Z,85.51
2023-04-02T14:22:32.498Z,85.03
2023-04-02T14:25:10.012Z,85.48
2023-04-02T14:27:46.706Z,85.47
2023-04-02T14:30:23.018Z,85.64
2023-04-02T14:33:01.818Z,86.22
2023-04-02T14:35:36.511Z,86.08
2023-04-02T14:38:14.124Z,85.64
2023-04-02T14:40:49.440Z,86.14
2023-04-02T14:43:23.491Z,85.99
2023-04-02T14:46:01.683Z,85.92
2023-04-02T14:48:46.191Z,85.28
2023-04-02T14:51:21.362Z,85.19
2023-04-02T14:53:55.738Z,84.92
2023-04-02T14:56:25.679Z,84.22
2023-04-02T14:59:03.542Z,84.17
2023-04-02T15:01:37.262Z,83.92
2023-04-02T15:04:13.068Z,84.59
2023-04-02T15:06:45.672Z,84.40
2023-04-02T15:09:19.044Z,84.76
2023-04-02T15:11:51.444Z,84.70
2023-04-02T15:14:22.608Z,84.90
2023-04-02T15:16:51.902Z,85.04
2023-04-02T15:19:21.870Z,85.03
2023-04-02T15:22:09.862Z,85.05
2023-04-02T15:24:45.021Z,83.68
2023-04-02T15:27:29.248Z,83.55
2023-04-02T15:30:03.913Z,83.28
2023-04-02T15:32:37.944Z,82.35
2023-04-02T15:35:20.310Z,82.55
2023-04-02T15:38:00.771Z,81.95
2023-04-02T15:40:40.179Z,82.36
2023-04-02T15:43:17.634Z,81.82
2023-04-02T15:45:52.471Z,81.80
2023-04-02T15:48:35.510Z,82.17
2023-04-02T15:51:17.718Z,81.21
2023-04-02T15:53:56.873Z,81.01
2023-04-02T15:56:31.410Z,81.78
2023-04-02T15:59:15.951Z,82.30
2023-04-02T16:01:55.094Z,81.34
2023-04-02T16:04:41.387Z,80.99
2023-04-02T16:07:30.320Z,80.79
2023-04-02T16:10:08.535Z,81.09
2023-04-02T16:12:38.234Z,81.27
2023-04-02T16:15:15.829Z,80.40
2023-04-02T16:17:47.581Z,81.21
2023-04-02T16:20:23.864Z,81.85
2023-04-02T16:23:00.953Z,80.99
2023-04-02T16:25:37.229Z,81.62
2023-04-02T16:28:15.530Z,81.38
2023-04-02T16:30:51.964Z,81.29
2023-04-02T16:33:41.505Z,80.54
2023-04-02T16:36:24.310Z,81.31
2023-04-02T16:39:01.001Z,80.39
2023-04-02T16:41:45.935Z,81.12
2023-04-02T16:44:25.901Z,79.93
2023-04-02T16:47:03.683Z,81.08
2023-04-02T16:49:37.425Z,80.60
2023-04-02T16:52:21.731Z,79.92
2023-04-02T16:55:02.374Z,79.34
2023-04-02T16:57:43.655Z,80.23
2023-04-02T17:00:21.932Z,79.83
2023-04-02T17:03:04.975Z,78.81
2023-04-02T17:05:33.442Z,78.38
2023-04-02T17:08:18.279Z,78.58
2023-04-02T17:10:52.631Z,78.41
2023-04-02T17:13:28.043Z,77.83
2023-04-02T17:16:04.668Z,78.24
2023-04-02T17:18:34.171Z,78.79
2023-04-02T17:21:06.577Z,78.08
2023-04-02T17:23:55.245Z,78.01
2023-04-02T17:26:27.128Z,77.52
2023-04-02T17:28:58.503Z,77.83
2023-04-02T17:31:30.744Z,77.86
2023-04-02T17:33:58.659Z,77.67
2023-04-02T17:36:40.930Z,77.35
2023-04-02T17:39:21.277Z,77.03
2023-04-02T17:41:53.569Z,76.33
2023-04-02T17:44:35.942Z,76.64
2023-04-02T17:47:12.655Z,76.60
2023-04-02T17:49:49.753Z,76.61
2023-04-02T17:52:24.463Z,76.40
2023-04-02T17:55:03.198Z,76.41
2023-04-02T17:57:46.148Z,76.43
2023-04-02T18:00:26.625Z,75.48
2023-04-02T18:03:07.520Z,75.18
2023-04-02T18:05:40.067Z,75.39
2023-04-02T18:08:18.802Z,74.87
2023-04-02T18:11:00.223Z,75.14
2023-04-02T18:13:34.905Z,74.98
2023-04-02T18:16:17.561Z,73.64
2023-04-02T18:19:10.112Z,72.98
2023-04-02T18:21:44.285Z,73.05
2023-04-02T18:24:29.207Z,72.98
2023-04-02T18:27:10.209Z,73.64
2023-04-02T18:29:44.578Z,73.13
2023-04-02T18:32:35.571Z,73.11
2023-04-02T18:35:14.037Z,72.86
2023-04-02T18:37:57.564Z,72.78
2023-04-02T18:40:43.263Z,73.76
2023-04-02T18:43:26.668Z,73.70
2023-04-02T18:45:59.901Z,73.90
2023-04-02T18:48:42.069Z,73.31
2023-04-02T18:51:16.815Z,72.86
2023-04-02T18:53:45.389Z,72.81
2023-04-02T18:56:17.050Z,72.45
2023-04-02T18:58:56.833Z,72.83
2023-04-02T19:01:29.013Z,72.44
2023-04-02T19:04:03.796Z,72.32
2023-04-02T19:06:37.360Z,72.13
2023-04-02T19:09:12.732Z,71.17
2023-04-02T19:11:40.513Z,70.83
2023-04-02T19:14:13.517Z,71.09
2023-04-02T19:16:58.809Z,70.99
2023-04-02T19:19:30.883Z,70.64
2023-04-02T19:22:23.747Z,69.79
2023-04-02T19:25:08.775Z,71.21
2023-04-02T19:27:51.314Z,70.31
2023-04-02T19:30:39.997Z,70.49
2023-04-02T19:33:21.136Z,70.51
2023-04-02T19:35:56.816Z,70.36
2023-04-02T19:38:44.815Z,69.48
2023-04-02T19:41:19.629Z,70.05
2023-04-02T19:43:47.466Z,70.44
2023-04-02T19:46:15.615Z,69.19
2023-04-02T19:48:51.891Z,69.05
2023-04-02T19:51:21.398Z,69.26
2023-04-02T19:53:49.080Z,69.39
2023-04-02T19:56:16.883Z,69.83
2023-04-02T19:58:44.607Z,69.26
2023-04-02T20:01:12.294Z,69.38
2023-04-02T20:03:40.071Z,69.39
2023-04-02T20:06:07.789Z,69.37
2023-04-02T20:08:37.134Z,69.26
2023-04-02T20:11:05.091Z,68.58
2023-04-02T20:13:32.854Z,68.52
2023-04-02T20:16:01.728Z,69.23
2023-04-02T20:18:30.124Z,68.91
2023-04-02T20:20:58.026Z,68.40
2023-04-02T20:23:25.902Z,68.65
2023-04-02T20:25:57.713Z,68.57
2023-04-02T20:28:27.075Z,68.60
2023-04-02T20:30:54.933Z,67.95
2023-04-02T20:33:24.993Z,67.51
2023-04-02T20:35:54.603Z,68.37
2023-04-02T20:38:22.305Z,69.16
2023-04-02T20:40:52.960Z,68.87
2023-04-02T20:43:22.571Z,68.79
2023-04-02T20:45:57.454Z,68.16
2023-04-02T20:48:27.445Z,67.82
2023-04-02T20:50:55.523Z,68.11
2023-04-02T20:53:23.387Z,68.15
2023-04-02T20:55:51.122Z,68.24
2023-04-02T20:58:20.254Z,68.19
2023-04-02T21:00:49.262Z,68.22
2023-04-02T21:03:16.995Z,68.37
2023-04-02T21:05:45.410Z,68.55
2023-04-02T21:08:13.552Z,68.83
2023-04-02T21:10:41.720Z,68.43
2023-04-02T21:13:09.338Z,68.38
2023-04-02T21:15:42.978Z,68.61
2023-04-02T21:18:12.167Z,68.70
2023-04-02T21:20:39.894Z,67.99
2023-04-02T21:23:07.573Z,68.24
2023-04-02T21:25:35.530Z,67.95
2023-04-02T21:28:03.840Z,68.29
2023-04-02T21:30:33.007Z,68.08
2023-04-02T21:33:00.926Z,68.08
2023-04-02T21:35:29.959Z,68.63
2023-04-02T21:37:57.631Z,68.83
2023-04-02T21:40:25.300Z,69.13
2023-04-02T21:42:52.942Z,68.81
2023-04-02T21:45:20.672Z,68.91
2023-04-02T21:47:48.439Z,68.29
2023-04-02T21:50:16.244Z,68.50
2023-04-02T21:52:45.279Z,66.27
2023-04-02T21:55:12.979Z,65.46
2023-04-02T21:57:40.777Z,65.93
2023-04-02T22:00:12.340Z,66.01
2023-04-02T22:02:40.409Z,66.66
2023-04-02T22:05:08.825Z,65.75
2023-04-02T22:07:36.570Z,65.43
2023-04-02T22:10:06.099Z,64.80
2023-04-02T22:12:33.775Z,64.97
2023-04-02T22:15:01.483Z,64.79
2023-04-02T22:17:29.140Z,64.03
2023-04-02T22:19:56.978Z,64.42
2023-04-02T22:22:25.220Z,64.27
2023-04-02T22:24:52.873Z,63.88
2023-04-02T22:27:21.859Z,64.10
2023-04-02T22:29:49.492Z,64.13
2023-04-02T22:32:17.215Z,63.70
2023-04-02T22:34:45.761Z,63.58
2023-04-02T22:37:13.546Z,62.68
2023-04-02T22:39:41.288Z,63.05
2023-04-02T22:42:08.895Z,63.94
2023-04-02T22:44:37.964Z,64.23
2023-04-02T22:47:05.674Z,64.48
2023-04-02T22:49:33.338Z,64.94
2023-04-02T22:52:01.528Z,64.88
2023-04-02T22:54:29.268Z,64.99
2023-04-02T22:56:56.967Z,64.96
2023-04-02T22:59:24.685Z,63.22
2023-04-02T23:01:53.748Z,61.60
2023-04-02T23:04:21.769Z,61.37
2023-04-02T23:06:49.527Z,61.96
2023-04-02T23:09:17.286Z,62.65
2023-04-02T23:11:45.361Z,61.83
2023-04-02T23:14:13.089Z,61.88
2023-04-02T23:16:40.827Z,61.75
2023-04-02T23:19:10.160Z,61.65
2023-04-02T23:21:37.860Z,61.54
2023-04-02T23:24:05.836Z,60.97
2023-04-02T23:26:33.699Z,61.21
2023-04-02T23:29:02.355Z,61.53
2023-04-02T23:31:33.496Z,61.00
2023-04-02T23:34:02.819Z,61.57
2023-04-02T23:36:33.306Z,62.11
2023-04-02T23:39:03.202Z,61.99
2023-04-02T23:41:32.022Z,62.15
2023-04-02T23:44:00.348Z,62.45
2023-04-02T23:46:29.063Z,62.94
2023-04-02T23:48:57.236Z,62.94
2023-04-02T23:51:25.912Z,63.42
2023-04-02T23:53:56.555Z,63.87
2023-04-02T23:56:24.718Z,63.90
2023-04-02T23:58:52.831Z,64.34
